sensor_id;sensor_type;location;lat;lon;timestamp;P1;durP1;ratioP1;P2;durP2;ratioP2
81006;SDS011;70472;47.592;17.640;2024-03-17T00:00:14;1.90;;;1.90;;
81006;SDS011;70472;47.592;17.640;2024-03-17T00:00:45;1.87;;;1.87;;
81006;SDS011;70472;47.592;17.640;2024-03-17T00:01:17;1.60;;;1.60;;
81006;SDS011;70472;47.592;17.640;2024-03-17T00:01:48;1.30;;;1.30;;
81006;SDS011;70472;47.592;17.640;2024-03-17T00:02:19;1.50;;;1.50;;
81006;SDS011;70472;47.592;17.640;2024-03-17T00:02:51;1.77;;;1.77;;
81006;SDS011;70472;47.592;17.640;2024-03-17T00:03:22;1.80;;;1.80;;
81006;SDS011;70472;47.592;17.640;2024-03-17T00:03:53;1.67;;;1.67;;
81006;SDS011;70472;47.592;17.640;2024-03-17T00:04:25;1.37;;;1.37;;
81006;SDS011;70472;47.592;17.640;2024-03-17T00:04:56;1.27;;;1.27;;
81006;SDS011;70472;47.592;17.640;2024-03-17T00:05:27;1.40;;;1.40;;
81006;SDS011;70472;47.592;17.640;2024-03-17T00:05:59;1.37;;;1.37;;
81006;SDS011;70472;47.592;17.640;2024-03-17T00:06:32;1.23;;;1.23;;
81006;SDS011;70472;47.592;17.640;2024-03-17T00:07:03;1.43;;;1.43;;
81006;SDS011;70472;47.592;17.640;2024-03-17T00:07:35;1.13;;;1.13;;
81006;SDS011;70472;47.592;17.640;2024-03-17T00:08:06;1.23;;;1.23;;
81006;SDS011;70472;47.592;17.640;2024-03-17T00:08:37;1.27;;;1.27;;
81006;SDS011;70472;47.592;17.640;2024-03-17T00:09:09;1.33;;;1.33;;
81006;SDS011;70472;47.592;17.640;2024-03-17T00:09:40;1.20;;;1.20;;
81006;SDS011;70472;47.592;17.640;2024-03-17T00:10:12;0.97;;;0.97;;
81006;SDS011;70472;47.592;17.640;2024-03-17T00:10:44;1.23;;;1.23;;
81006;SDS011;70472;47.592;17.640;2024-03-17T00:11:20;1.37;;;1.37;;
81006;SDS011;70472;47.592;17.640;2024-03-17T00:11:53;1.40;;;1.40;;
81006;SDS011;70472;47.592;17.640;2024-03-17T00:12:25;1.40;;;1.40;;
81006;SDS011;70472;47.592;17.640;2024-03-17T00:12:56;1.30;;;1.30;;
81006;SDS011;70472;47.592;17.640;2024-03-17T00:13:28;1.33;;;1.33;;
81006;SDS011;70472;47.592;17.640;2024-03-17T00:13:59;1.27;;;1.27;;
81006;SDS011;70472;47.592;17.640;2024-03-17T00:14:30;1.17;;;1.17;;
81006;SDS011;70472;47.592;17.640;2024-03-17T00:15:02;1.40;;;1.40;;
81006;SDS011;70472;47.592;17.640;2024-03-17T00:15:35;1.67;;;1.67;;
81006;SDS011;70472;47.592;17.640;2024-03-17T00:16:07;1.57;;;1.57;;
81006;SDS011;70472;47.592;17.640;2024-03-17T00:16:38;0.97;;;0.97;;
81006;SDS011;70472;47.592;17.640;2024-03-17T00:17:09;1.10;;;1.10;;
81006;SDS011;70472;47.592;17.640;2024-03-17T00:17:41;1.17;;;1.17;;
81006;SDS011;70472;47.592;17.640;2024-03-17T00:18:12;1.27;;;1.27;;
81006;SDS011;70472;47.592;17.640;2024-03-17T00:18:44;1.47;;;1.47;;
81006;SDS011;70472;47.592;17.640;2024-03-17T00:19:18;1.23;;;1.23;;
81006;SDS011;70472;47.592;17.640;2024-03-17T00:19:49;1.47;;;1.47;;
81006;SDS011;70472;47.592;17.640;2024-03-17T00:20:20;1.30;;;1.30;;
81006;SDS011;70472;47.592;17.640;2024-03-17T00:20:52;1.33;;;1.33;;
81006;SDS011;70472;47.592;17.640;2024-03-17T00:21:23;1.43;;;1.43;;
81006;SDS011;70472;47.592;17.640;2024-03-17T00:21:54;1.37;;;1.37;;
81006;SDS011;70472;47.592;17.640;2024-03-17T00:22:25;1.17;;;1.17;;
81006;SDS011;70472;47.592;17.640;2024-03-17T00:22:57;1.17;;;1.17;;
81006;SDS011;70472;47.592;17.640;2024-03-17T00:23:28;1.43;;;1.43;;
81006;SDS011;70472;47.592;17.640;2024-03-17T00:23:59;1.40;;;1.40;;
81006;SDS011;70472;47.592;17.640;2024-03-17T00:24:31;1.13;;;1.13;;
81006;SDS011;70472;47.592;17.640;2024-03-17T00:25:02;1.17;;;1.17;;
81006;SDS011;70472;47.592;17.640;2024-03-17T00:25:35;1.07;;;1.07;;
81006;SDS011;70472;47.592;17.640;2024-03-17T00:26:06;1.30;;;1.30;;
81006;SDS011;70472;47.592;17.640;2024-03-17T00:26:38;1.43;;;1.43;;
81006;SDS011;70472;47.592;17.640;2024-03-17T00:27:09;1.60;;;1.60;;
81006;SDS011;70472;47.592;17.640;2024-03-17T00:27:41;1.30;;;1.30;;
81006;SDS011;70472;47.592;17.640;2024-03-17T00:28:12;1.57;;;1.57;;
81006;SDS011;70472;47.592;17.640;2024-03-17T00:28:43;1.50;;;1.50;;
81006;SDS011;70472;47.592;17.640;2024-03-17T00:29:15;1.60;;;1.60;;
81006;SDS011;70472;47.592;17.640;2024-03-17T00:29:46;1.50;;;1.50;;
81006;SDS011;70472;47.592;17.640;2024-03-17T00:30:17;1.63;;;1.63;;
81006;SDS011;70472;47.592;17.640;2024-03-17T00:30:49;1.43;;;1.43;;
81006;SDS011;70472;47.592;17.640;2024-03-17T00:31:20;1.60;;;1.60;;
81006;SDS011;70472;47.592;17.640;2024-03-17T00:31:51;1.30;;;1.30;;
81006;SDS011;70472;47.592;17.640;2024-03-17T00:32:23;1.60;;;1.60;;
81006;SDS011;70472;47.592;17.640;2024-03-17T00:32:54;1.60;;;1.60;;
81006;SDS011;70472;47.592;17.640;2024-03-17T00:33:25;1.47;;;1.47;;
81006;SDS011;70472;47.592;17.640;2024-03-17T00:33:56;1.33;;;1.33;;
81006;SDS011;70472;47.592;17.640;2024-03-17T00:34:28;1.43;;;1.43;;
81006;SDS011;70472;47.592;17.640;2024-03-17T00:34:59;1.70;;;1.70;;
81006;SDS011;70472;47.592;17.640;2024-03-17T00:35:30;1.60;;;1.60;;
81006;SDS011;70472;47.592;17.640;2024-03-17T00:36:02;1.47;;;1.47;;
81006;SDS011;70472;47.592;17.640;2024-03-17T00:36:33;1.60;;;1.60;;
81006;SDS011;70472;47.592;17.640;2024-03-17T00:37:05;1.70;;;1.70;;
81006;SDS011;70472;47.592;17.640;2024-03-17T00:37:36;1.50;;;1.50;;
81006;SDS011;70472;47.592;17.640;2024-03-17T00:38:07;0.97;;;0.97;;
81006;SDS011;70472;47.592;17.640;2024-03-17T00:38:38;1.37;;;1.37;;
81006;SDS011;70472;47.592;17.640;2024-03-17T00:39:10;1.77;;;1.77;;
81006;SDS011;70472;47.592;17.640;2024-03-17T00:39:41;1.60;;;1.60;;
81006;SDS011;70472;47.592;17.640;2024-03-17T00:40:13;1.43;;;1.43;;
81006;SDS011;70472;47.592;17.640;2024-03-17T00:40:44;1.87;;;1.87;;
81006;SDS011;70472;47.592;17.640;2024-03-17T00:41:15;1.67;;;1.67;;
81006;SDS011;70472;47.592;17.640;2024-03-17T00:41:46;1.70;;;1.70;;
81006;SDS011;70472;47.592;17.640;2024-03-17T00:42:18;1.80;;;1.80;;
81006;SDS011;70472;47.592;17.640;2024-03-17T00:42:49;1.60;;;1.60;;
81006;SDS011;70472;47.592;17.640;2024-03-17T00:43:22;1.83;;;1.83;;
81006;SDS011;70472;47.592;17.640;2024-03-17T00:43:53;1.57;;;1.57;;
81006;SDS011;70472;47.592;17.640;2024-03-17T00:44:25;1.47;;;1.47;;
81006;SDS011;70472;47.592;17.640;2024-03-17T00:44:57;1.73;;;1.73;;
81006;SDS011;70472;47.592;17.640;2024-03-17T00:45:28;1.67;;;1.67;;
81006;SDS011;70472;47.592;17.640;2024-03-17T00:45:59;1.93;;;1.93;;
81006;SDS011;70472;47.592;17.640;2024-03-17T00:46:31;1.57;;;1.57;;
81006;SDS011;70472;47.592;17.640;2024-03-17T00:47:02;1.77;;;1.77;;
81006;SDS011;70472;47.592;17.640;2024-03-17T00:47:34;1.80;;;1.80;;
81006;SDS011;70472;47.592;17.640;2024-03-17T00:48:05;1.60;;;1.60;;
81006;SDS011;70472;47.592;17.640;2024-03-17T00:48:37;1.77;;;1.77;;
81006;SDS011;70472;47.592;17.640;2024-03-17T00:49:09;1.63;;;1.63;;
81006;SDS011;70472;47.592;17.640;2024-03-17T00:49:40;1.73;;;1.73;;
81006;SDS011;70472;47.592;17.640;2024-03-17T00:50:12;1.87;;;1.87;;
81006;SDS011;70472;47.592;17.640;2024-03-17T00:50:43;2.03;;;2.03;;
81006;SDS011;70472;47.592;17.640;2024-03-17T00:51:16;1.60;;;1.60;;
81006;SDS011;70472;47.592;17.640;2024-03-17T00:51:48;1.80;;;1.80;;
81006;SDS011;70472;47.592;17.640;2024-03-17T00:52:19;2.20;;;2.20;;
81006;SDS011;70472;47.592;17.640;2024-03-17T00:52:50;1.87;;;1.87;;
81006;SDS011;70472;47.592;17.640;2024-03-17T00:53:22;1.53;;;1.53;;
81006;SDS011;70472;47.592;17.640;2024-03-17T00:53:53;1.67;;;1.67;;
81006;SDS011;70472;47.592;17.640;2024-03-17T00:54:24;1.97;;;1.97;;
81006;SDS011;70472;47.592;17.640;2024-03-17T00:54:56;1.97;;;1.97;;
81006;SDS011;70472;47.592;17.640;2024-03-17T00:55:27;1.57;;;1.57;;
81006;SDS011;70472;47.592;17.640;2024-03-17T00:55:59;1.73;;;1.73;;
81006;SDS011;70472;47.592;17.640;2024-03-17T00:56:30;1.77;;;1.77;;
81006;SDS011;70472;47.592;17.640;2024-03-17T00:57:01;1.67;;;1.67;;
81006;SDS011;70472;47.592;17.640;2024-03-17T00:57:33;2.03;;;2.03;;
81006;SDS011;70472;47.592;17.640;2024-03-17T00:58:04;2.17;;;2.17;;
81006;SDS011;70472;47.592;17.640;2024-03-17T00:58:35;1.87;;;1.87;;
81006;SDS011;70472;47.592;17.640;2024-03-17T00:59:07;2.00;;;2.00;;
81006;SDS011;70472;47.592;17.640;2024-03-17T00:59:38;1.53;;;1.53;;
81006;SDS011;70472;47.592;17.640;2024-03-17T01:00:10;1.97;;;1.97;;
81006;SDS011;70472;47.592;17.640;2024-03-17T01:00:41;1.97;;;1.97;;
81006;SDS011;70472;47.592;17.640;2024-03-17T01:01:13;1.83;;;1.83;;
81006;SDS011;70472;47.592;17.640;2024-03-17T01:01:44;1.83;;;1.83;;
81006;SDS011;70472;47.592;17.640;2024-03-17T01:02:15;1.83;;;1.83;;
81006;SDS011;70472;47.592;17.640;2024-03-17T01:02:47;1.83;;;1.83;;
81006;SDS011;70472;47.592;17.640;2024-03-17T01:03:18;1.50;;;1.50;;
81006;SDS011;70472;47.592;17.640;2024-03-17T01:03:51;1.90;;;1.90;;
81006;SDS011;70472;47.592;17.640;2024-03-17T01:04:22;1.63;;;1.63;;
81006;SDS011;70472;47.592;17.640;2024-03-17T01:04:53;1.43;;;1.43;;
81006;SDS011;70472;47.592;17.640;2024-03-17T01:05:25;2.00;;;2.00;;
81006;SDS011;70472;47.592;17.640;2024-03-17T01:05:56;1.73;;;1.73;;
81006;SDS011;70472;47.592;17.640;2024-03-17T01:06:27;1.83;;;1.83;;
81006;SDS011;70472;47.592;17.640;2024-03-17T01:06:59;1.97;;;1.97;;
81006;SDS011;70472;47.592;17.640;2024-03-17T01:07:31;1.60;;;1.60;;
81006;SDS011;70472;47.592;17.640;2024-03-17T01:08:04;2.00;;;2.00;;
81006;SDS011;70472;47.592;17.640;2024-03-17T01:08:36;1.80;;;1.80;;
81006;SDS011;70472;47.592;17.640;2024-03-17T01:09:08;1.67;;;1.67;;
81006;SDS011;70472;47.592;17.640;2024-03-17T01:09:40;1.73;;;1.73;;
81006;SDS011;70472;47.592;17.640;2024-03-17T01:10:11;1.80;;;1.80;;
81006;SDS011;70472;47.592;17.640;2024-03-17T01:10:43;1.83;;;1.83;;
81006;SDS011;70472;47.592;17.640;2024-03-17T01:11:15;1.63;;;1.63;;
81006;SDS011;70472;47.592;17.640;2024-03-17T01:11:47;1.87;;;1.87;;
81006;SDS011;70472;47.592;17.640;2024-03-17T01:12:18;1.73;;;1.73;;
81006;SDS011;70472;47.592;17.640;2024-03-17T01:12:49;1.63;;;1.63;;
81006;SDS011;70472;47.592;17.640;2024-03-17T01:13:21;1.97;;;1.97;;
81006;SDS011;70472;47.592;17.640;2024-03-17T01:13:52;1.90;;;1.90;;
81006;SDS011;70472;47.592;17.640;2024-03-17T01:14:23;1.83;;;1.83;;
81006;SDS011;70472;47.592;17.640;2024-03-17T01:14:55;1.73;;;1.73;;
81006;SDS011;70472;47.592;17.640;2024-03-17T01:15:27;1.70;;;1.70;;
81006;SDS011;70472;47.592;17.640;2024-03-17T01:15:58;1.33;;;1.33;;
81006;SDS011;70472;47.592;17.640;2024-03-17T01:16:30;1.63;;;1.63;;
81006;SDS011;70472;47.592;17.640;2024-03-17T01:17:01;1.53;;;1.53;;
81006;SDS011;70472;47.592;17.640;2024-03-17T01:17:33;1.60;;;1.60;;
81006;SDS011;70472;47.592;17.640;2024-03-17T01:18:04;1.63;;;1.63;;
81006;SDS011;70472;47.592;17.640;2024-03-17T01:18:36;1.80;;;1.80;;
81006;SDS011;70472;47.592;17.640;2024-03-17T01:19:08;1.90;;;1.90;;
81006;SDS011;70472;47.592;17.640;2024-03-17T01:19:39;1.50;;;1.50;;
81006;SDS011;70472;47.592;17.640;2024-03-17T01:20:10;1.57;;;1.57;;
81006;SDS011;70472;47.592;17.640;2024-03-17T01:20:42;1.37;;;1.37;;
81006;SDS011;70472;47.592;17.640;2024-03-17T01:21:13;1.63;;;1.63;;
81006;SDS011;70472;47.592;17.640;2024-03-17T01:21:44;1.40;;;1.40;;
81006;SDS011;70472;47.592;17.640;2024-03-17T01:22:16;1.60;;;1.60;;
81006;SDS011;70472;47.592;17.640;2024-03-17T01:22:47;1.47;;;1.47;;
81006;SDS011;70472;47.592;17.640;2024-03-17T01:23:19;1.83;;;1.83;;
81006;SDS011;70472;47.592;17.640;2024-03-17T01:23:50;1.63;;;1.63;;
81006;SDS011;70472;47.592;17.640;2024-03-17T01:24:21;1.60;;;1.60;;
81006;SDS011;70472;47.592;17.640;2024-03-17T01:24:53;1.63;;;1.63;;
81006;SDS011;70472;47.592;17.640;2024-03-17T01:25:24;1.60;;;1.60;;
81006;SDS011;70472;47.592;17.640;2024-03-17T01:25:55;1.50;;;1.50;;
81006;SDS011;70472;47.592;17.640;2024-03-17T01:26:27;1.63;;;1.63;;
81006;SDS011;70472;47.592;17.640;2024-03-17T01:26:58;1.50;;;1.50;;
81006;SDS011;70472;47.592;17.640;2024-03-17T01:27:30;1.60;;;1.60;;
81006;SDS011;70472;47.592;17.640;2024-03-17T01:28:01;1.87;;;1.87;;
81006;SDS011;70472;47.592;17.640;2024-03-17T01:28:34;1.90;;;1.90;;
81006;SDS011;70472;47.592;17.640;2024-03-17T01:29:06;1.47;;;1.47;;
81006;SDS011;70472;47.592;17.640;2024-03-17T01:29:37;1.83;;;1.83;;
81006;SDS011;70472;47.592;17.640;2024-03-17T01:30:09;1.47;;;1.47;;
81006;SDS011;70472;47.592;17.640;2024-03-17T01:30:41;1.33;;;1.33;;
81006;SDS011;70472;47.592;17.640;2024-03-17T01:31:13;1.33;;;1.33;;
81006;SDS011;70472;47.592;17.640;2024-03-17T01:31:44;1.67;;;1.67;;
81006;SDS011;70472;47.592;17.640;2024-03-17T01:32:15;1.63;;;1.63;;
81006;SDS011;70472;47.592;17.640;2024-03-17T01:32:47;1.63;;;1.63;;
81006;SDS011;70472;47.592;17.640;2024-03-17T01:33:18;1.60;;;1.60;;
81006;SDS011;70472;47.592;17.640;2024-03-17T01:33:50;1.77;;;1.77;;
81006;SDS011;70472;47.592;17.640;2024-03-17T01:34:21;1.63;;;1.63;;
81006;SDS011;70472;47.592;17.640;2024-03-17T01:34:53;1.40;;;1.40;;
81006;SDS011;70472;47.592;17.640;2024-03-17T01:35:24;1.47;;;1.47;;
81006;SDS011;70472;47.592;17.640;2024-03-17T01:35:56;1.53;;;1.53;;
81006;SDS011;70472;47.592;17.640;2024-03-17T01:36:28;1.67;;;1.67;;
81006;SDS011;70472;47.592;17.640;2024-03-17T01:36:59;1.43;;;1.43;;
81006;SDS011;70472;47.592;17.640;2024-03-17T01:37:30;1.70;;;1.70;;
81006;SDS011;70472;47.592;17.640;2024-03-17T01:38:02;1.60;;;1.60;;
81006;SDS011;70472;47.592;17.640;2024-03-17T01:38:35;1.90;;;1.90;;
81006;SDS011;70472;47.592;17.640;2024-03-17T01:39:06;1.63;;;1.63;;
81006;SDS011;70472;47.592;17.640;2024-03-17T01:39:37;1.63;;;1.63;;
81006;SDS011;70472;47.592;17.640;2024-03-17T01:40:09;1.63;;;1.63;;
81006;SDS011;70472;47.592;17.640;2024-03-17T01:40:41;1.57;;;1.57;;
81006;SDS011;70472;47.592;17.640;2024-03-17T01:41:12;1.47;;;1.47;;
81006;SDS011;70472;47.592;17.640;2024-03-17T01:41:44;1.53;;;1.53;;
81006;SDS011;70472;47.592;17.640;2024-03-17T01:42:15;2.07;;;2.07;;
81006;SDS011;70472;47.592;17.640;2024-03-17T01:42:47;1.83;;;1.83;;
81006;SDS011;70472;47.592;17.640;2024-03-17T01:43:18;1.73;;;1.73;;
81006;SDS011;70472;47.592;17.640;2024-03-17T01:43:50;1.77;;;1.77;;
81006;SDS011;70472;47.592;17.640;2024-03-17T01:44:22;2.17;;;2.17;;
81006;SDS011;70472;47.592;17.640;2024-03-17T01:44:58;1.83;;;1.83;;
81006;SDS011;70472;47.592;17.640;2024-03-17T01:45:30;1.63;;;1.63;;
81006;SDS011;70472;47.592;17.640;2024-03-17T01:46:03;1.53;;;1.53;;
81006;SDS011;70472;47.592;17.640;2024-03-17T01:46:34;1.73;;;1.73;;
81006;SDS011;70472;47.592;17.640;2024-03-17T01:47:06;1.77;;;1.77;;
81006;SDS011;70472;47.592;17.640;2024-03-17T01:47:38;1.60;;;1.60;;
81006;SDS011;70472;47.592;17.640;2024-03-17T01:48:15;1.50;;;1.50;;
81006;SDS011;70472;47.592;17.640;2024-03-17T01:48:47;1.73;;;1.73;;
81006;SDS011;70472;47.592;17.640;2024-03-17T01:49:19;1.67;;;1.67;;
81006;SDS011;70472;47.592;17.640;2024-03-17T01:49:52;1.60;;;1.60;;
81006;SDS011;70472;47.592;17.640;2024-03-17T01:50:28;2.17;;;2.17;;
81006;SDS011;70472;47.592;17.640;2024-03-17T01:51:06;1.97;;;1.97;;
81006;SDS011;70472;47.592;17.640;2024-03-17T01:51:41;2.00;;;2.00;;
81006;SDS011;70472;47.592;17.640;2024-03-17T01:52:16;1.77;;;1.77;;
81006;SDS011;70472;47.592;17.640;2024-03-17T01:52:49;1.53;;;1.53;;
81006;SDS011;70472;47.592;17.640;2024-03-17T01:53:23;1.93;;;1.93;;
81006;SDS011;70472;47.592;17.640;2024-03-17T01:53:56;2.20;;;2.20;;
81006;SDS011;70472;47.592;17.640;2024-03-17T01:54:28;2.13;;;2.13;;
81006;SDS011;70472;47.592;17.640;2024-03-17T01:55:00;2.17;;;2.17;;
81006;SDS011;70472;47.592;17.640;2024-03-17T01:55:34;2.27;;;2.27;;
81006;SDS011;70472;47.592;17.640;2024-03-17T01:56:10;2.07;;;2.07;;
81006;SDS011;70472;47.592;17.640;2024-03-17T01:56:44;2.20;;;2.20;;
81006;SDS011;70472;47.592;17.640;2024-03-17T01:57:16;2.00;;;2.00;;
81006;SDS011;70472;47.592;17.640;2024-03-17T01:57:48;2.03;;;2.03;;
81006;SDS011;70472;47.592;17.640;2024-03-17T01:58:20;2.43;;;2.43;;
81006;SDS011;70472;47.592;17.640;2024-03-17T01:58:57;2.53;;;2.53;;
81006;SDS011;70472;47.592;17.640;2024-03-17T01:59:29;2.57;;;2.57;;
81006;SDS011;70472;47.592;17.640;2024-03-17T02:00:00;2.30;;;2.30;;
81006;SDS011;70472;47.592;17.640;2024-03-17T02:00:38;2.20;;;2.20;;
81006;SDS011;70472;47.592;17.640;2024-03-17T02:01:11;2.53;;;2.53;;
81006;SDS011;70472;47.592;17.640;2024-03-17T02:01:42;2.40;;;2.40;;
81006;SDS011;70472;47.592;17.640;2024-03-17T02:02:14;2.47;;;2.47;;
81006;SDS011;70472;47.592;17.640;2024-03-17T02:02:45;2.30;;;2.30;;
81006;SDS011;70472;47.592;17.640;2024-03-17T02:03:16;2.37;;;2.37;;
81006;SDS011;70472;47.592;17.640;2024-03-17T02:03:48;2.60;;;2.60;;
81006;SDS011;70472;47.592;17.640;2024-03-17T02:04:19;2.50;;;2.50;;
81006;SDS011;70472;47.592;17.640;2024-03-17T02:04:51;2.77;;;2.77;;
81006;SDS011;70472;47.592;17.640;2024-03-17T02:05:22;2.87;;;2.87;;
81006;SDS011;70472;47.592;17.640;2024-03-17T02:05:53;2.57;;;2.57;;
81006;SDS011;70472;47.592;17.640;2024-03-17T02:06:25;2.70;;;2.70;;
81006;SDS011;70472;47.592;17.640;2024-03-17T02:06:56;2.63;;;2.63;;
81006;SDS011;70472;47.592;17.640;2024-03-17T02:07:28;2.87;;;2.87;;
81006;SDS011;70472;47.592;17.640;2024-03-17T02:08:00;2.67;;;2.67;;
81006;SDS011;70472;47.592;17.640;2024-03-17T02:08:48;2.80;;;2.80;;
81006;SDS011;70472;47.592;17.640;2024-03-17T02:09:24;3.17;;;3.17;;
81006;SDS011;70472;47.592;17.640;2024-03-17T02:09:56;3.13;;;3.13;;
81006;SDS011;70472;47.592;17.640;2024-03-17T02:10:28;3.00;;;3.00;;
81006;SDS011;70472;47.592;17.640;2024-03-17T02:10:59;2.90;;;2.90;;
81006;SDS011;70472;47.592;17.640;2024-03-17T02:11:31;2.97;;;2.97;;
81006;SDS011;70472;47.592;17.640;2024-03-17T02:12:03;2.77;;;2.77;;
81006;SDS011;70472;47.592;17.640;2024-03-17T02:12:35;2.70;;;2.70;;
81006;SDS011;70472;47.592;17.640;2024-03-17T02:13:08;2.97;;;2.97;;
81006;SDS011;70472;47.592;17.640;2024-03-17T02:13:40;2.73;;;2.73;;
81006;SDS011;70472;47.592;17.640;2024-03-17T02:14:13;3.27;;;3.27;;
81006;SDS011;70472;47.592;17.640;2024-03-17T02:14:45;2.77;;;2.77;;
81006;SDS011;70472;47.592;17.640;2024-03-17T02:15:16;2.90;;;2.90;;
81006;SDS011;70472;47.592;17.640;2024-03-17T02:15:48;2.37;;;2.37;;
81006;SDS011;70472;47.592;17.640;2024-03-17T02:16:19;2.63;;;2.63;;
81006;SDS011;70472;47.592;17.640;2024-03-17T02:16:50;2.83;;;2.83;;
81006;SDS011;70472;47.592;17.640;2024-03-17T02:17:22;2.93;;;2.93;;
81006;SDS011;70472;47.592;17.640;2024-03-17T02:17:54;2.77;;;2.77;;
81006;SDS011;70472;47.592;17.640;2024-03-17T02:18:25;2.80;;;2.80;;
81006;SDS011;70472;47.592;17.640;2024-03-17T02:18:57;2.93;;;2.93;;
81006;SDS011;70472;47.592;17.640;2024-03-17T02:19:28;3.13;;;3.13;;
81006;SDS011;70472;47.592;17.640;2024-03-17T02:20:00;3.03;;;3.03;;
81006;SDS011;70472;47.592;17.640;2024-03-17T02:20:31;2.83;;;2.83;;
81006;SDS011;70472;47.592;17.640;2024-03-17T02:21:03;2.90;;;2.90;;
81006;SDS011;70472;47.592;17.640;2024-03-17T02:21:35;2.83;;;2.83;;
81006;SDS011;70472;47.592;17.640;2024-03-17T02:22:16;2.67;;;2.67;;
81006;SDS011;70472;47.592;17.640;2024-03-17T02:22:47;2.73;;;2.73;;
81006;SDS011;70472;47.592;17.640;2024-03-17T02:23:18;2.73;;;2.73;;
81006;SDS011;70472;47.592;17.640;2024-03-17T02:23:50;2.73;;;2.73;;
81006;SDS011;70472;47.592;17.640;2024-03-17T02:24:22;2.77;;;2.77;;
81006;SDS011;70472;47.592;17.640;2024-03-17T02:24:54;3.00;;;3.00;;
81006;SDS011;70472;47.592;17.640;2024-03-17T02:25:25;2.90;;;2.90;;
81006;SDS011;70472;47.592;17.640;2024-03-17T02:25:58;3.17;;;3.17;;
81006;SDS011;70472;47.592;17.640;2024-03-17T02:26:30;3.10;;;3.10;;
81006;SDS011;70472;47.592;17.640;2024-03-17T02:27:01;2.83;;;2.83;;
81006;SDS011;70472;47.592;17.640;2024-03-17T02:27:32;2.97;;;2.97;;
81006;SDS011;70472;47.592;17.640;2024-03-17T02:28:05;3.33;;;3.33;;
81006;SDS011;70472;47.592;17.640;2024-03-17T02:28:40;2.83;;;2.83;;
81006;SDS011;70472;47.592;17.640;2024-03-17T02:29:13;3.07;;;3.07;;
81006;SDS011;70472;47.592;17.640;2024-03-17T02:29:44;2.93;;;2.93;;
81006;SDS011;70472;47.592;17.640;2024-03-17T02:30:15;2.93;;;2.93;;
81006;SDS011;70472;47.592;17.640;2024-03-17T02:30:47;3.23;;;3.23;;
81006;SDS011;70472;47.592;17.640;2024-03-17T02:31:18;3.27;;;3.27;;
81006;SDS011;70472;47.592;17.640;2024-03-17T02:31:49;3.80;;;3.80;;
81006;SDS011;70472;47.592;17.640;2024-03-17T02:32:21;3.67;;;3.67;;
81006;SDS011;70472;47.592;17.640;2024-03-17T02:32:52;3.17;;;3.17;;
81006;SDS011;70472;47.592;17.640;2024-03-17T02:33:25;3.57;;;3.57;;
81006;SDS011;70472;47.592;17.640;2024-03-17T02:33:56;3.90;;;3.90;;
81006;SDS011;70472;47.592;17.640;2024-03-17T02:34:28;3.60;;;3.60;;
81006;SDS011;70472;47.592;17.640;2024-03-17T02:34:59;3.27;;;3.27;;
81006;SDS011;70472;47.592;17.640;2024-03-17T02:35:30;3.50;;;3.50;;
81006;SDS011;70472;47.592;17.640;2024-03-17T02:36:05;3.77;;;3.77;;
81006;SDS011;70472;47.592;17.640;2024-03-17T02:36:37;3.27;;;3.27;;
81006;SDS011;70472;47.592;17.640;2024-03-17T02:37:09;3.47;;;3.47;;
81006;SDS011;70472;47.592;17.640;2024-03-17T02:37:40;3.83;;;3.83;;
81006;SDS011;70472;47.592;17.640;2024-03-17T02:38:15;3.47;;;3.47;;
81006;SDS011;70472;47.592;17.640;2024-03-17T02:38:48;3.83;;;3.83;;
81006;SDS011;70472;47.592;17.640;2024-03-17T02:39:19;3.63;;;3.63;;
81006;SDS011;70472;47.592;17.640;2024-03-17T02:39:51;3.80;;;3.80;;
81006;SDS011;70472;47.592;17.640;2024-03-17T02:40:22;3.47;;;3.47;;
81006;SDS011;70472;47.592;17.640;2024-03-17T02:40:53;3.87;;;3.87;;
81006;SDS011;70472;47.592;17.640;2024-03-17T02:41:25;3.67;;;3.67;;
81006;SDS011;70472;47.592;17.640;2024-03-17T02:41:57;3.53;;;3.53;;
81006;SDS011;70472;47.592;17.640;2024-03-17T02:42:29;3.33;;;3.33;;
81006;SDS011;70472;47.592;17.640;2024-03-17T02:43:00;3.67;;;3.67;;
81006;SDS011;70472;47.592;17.640;2024-03-17T02:43:31;3.27;;;3.27;;
81006;SDS011;70472;47.592;17.640;2024-03-17T02:44:02;3.07;;;3.07;;
81006;SDS011;70472;47.592;17.640;2024-03-17T02:44:34;3.57;;;3.57;;
81006;SDS011;70472;47.592;17.640;2024-03-17T02:45:08;3.33;;;3.33;;
81006;SDS011;70472;47.592;17.640;2024-03-17T02:45:39;2.90;;;2.90;;
81006;SDS011;70472;47.592;17.640;2024-03-17T02:46:12;3.30;;;3.30;;
81006;SDS011;70472;47.592;17.640;2024-03-17T02:46:46;3.53;;;3.53;;
81006;SDS011;70472;47.592;17.640;2024-03-17T02:47:18;3.33;;;3.33;;
81006;SDS011;70472;47.592;17.640;2024-03-17T02:47:50;3.47;;;3.47;;
81006;SDS011;70472;47.592;17.640;2024-03-17T02:48:21;3.10;;;3.10;;
81006;SDS011;70472;47.592;17.640;2024-03-17T02:48:53;3.10;;;3.10;;
81006;SDS011;70472;47.592;17.640;2024-03-17T02:49:25;2.97;;;2.97;;
81006;SDS011;70472;47.592;17.640;2024-03-17T02:49:57;3.33;;;3.33;;
81006;SDS011;70472;47.592;17.640;2024-03-17T02:50:28;3.67;;;3.67;;
81006;SDS011;70472;47.592;17.640;2024-03-17T02:51:00;3.63;;;3.63;;
81006;SDS011;70472;47.592;17.640;2024-03-17T02:51:33;3.27;;;3.27;;
81006;SDS011;70472;47.592;17.640;2024-03-17T02:52:05;3.33;;;3.33;;
81006;SDS011;70472;47.592;17.640;2024-03-17T02:52:38;3.27;;;3.27;;
81006;SDS011;70472;47.592;17.640;2024-03-17T02:53:09;3.33;;;3.33;;
81006;SDS011;70472;47.592;17.640;2024-03-17T02:53:41;3.00;;;3.00;;
81006;SDS011;70472;47.592;17.640;2024-03-17T02:54:14;3.33;;;3.33;;
81006;SDS011;70472;47.592;17.640;2024-03-17T02:54:45;3.20;;;3.20;;
81006;SDS011;70472;47.592;17.640;2024-03-17T02:55:17;2.87;;;2.87;;
81006;SDS011;70472;47.592;17.640;2024-03-17T02:55:48;3.33;;;3.33;;
81006;SDS011;70472;47.592;17.640;2024-03-17T02:56:19;3.50;;;3.50;;
81006;SDS011;70472;47.592;17.640;2024-03-17T02:56:51;3.07;;;3.07;;
81006;SDS011;70472;47.592;17.640;2024-03-17T02:57:22;2.73;;;2.73;;
81006;SDS011;70472;47.592;17.640;2024-03-17T02:57:55;3.50;;;3.50;;
81006;SDS011;70472;47.592;17.640;2024-03-17T02:58:26;3.23;;;3.23;;
81006;SDS011;70472;47.592;17.640;2024-03-17T02:58:58;3.53;;;3.53;;
81006;SDS011;70472;47.592;17.640;2024-03-17T02:59:29;2.83;;;2.83;;
81006;SDS011;70472;47.592;17.640;2024-03-17T03:00:00;3.23;;;3.23;;
81006;SDS011;70472;47.592;17.640;2024-03-17T03:00:32;2.90;;;2.90;;
81006;SDS011;70472;47.592;17.640;2024-03-17T03:01:06;3.23;;;3.23;;
81006;SDS011;70472;47.592;17.640;2024-03-17T03:01:37;2.97;;;2.97;;
81006;SDS011;70472;47.592;17.640;2024-03-17T03:02:09;2.80;;;2.80;;
81006;SDS011;70472;47.592;17.640;2024-03-17T03:02:41;3.43;;;3.43;;
81006;SDS011;70472;47.592;17.640;2024-03-17T03:03:14;3.27;;;3.27;;
81006;SDS011;70472;47.592;17.640;2024-03-17T03:03:45;3.47;;;3.47;;
81006;SDS011;70472;47.592;17.640;2024-03-17T03:04:17;3.37;;;3.37;;
81006;SDS011;70472;47.592;17.640;2024-03-17T03:04:48;3.67;;;3.67;;
81006;SDS011;70472;47.592;17.640;2024-03-17T03:05:20;3.53;;;3.53;;
81006;SDS011;70472;47.592;17.640;2024-03-17T03:05:52;3.27;;;3.27;;
81006;SDS011;70472;47.592;17.640;2024-03-17T03:06:23;3.50;;;3.50;;
81006;SDS011;70472;47.592;17.640;2024-03-17T03:06:55;3.73;;;3.73;;
81006;SDS011;70472;47.592;17.640;2024-03-17T03:07:26;3.47;;;3.47;;
81006;SDS011;70472;47.592;17.640;2024-03-17T03:07:57;3.40;;;3.40;;
81006;SDS011;70472;47.592;17.640;2024-03-17T03:08:29;3.33;;;3.33;;
81006;SDS011;70472;47.592;17.640;2024-03-17T03:09:03;3.97;;;3.97;;